sensor_id;sensor_type;location;lat;lon;timestamp;P1;durP1;ratioP1;P2;durP2;ratioP2
8626;SDS011;4351;51.422;6.794;2023-11-22T00:01:21;15.57;;;12.23;;
8626;SDS011;4351;51.422;6.794;2023-11-22T00:03:49;15.13;;;11.03;;
8626;SDS011;4351;51.422;6.794;2023-11-22T00:06:17;14.27;;;11.60;;
8626;SDS011;4351;51.422;6.794;2023-11-22T00:08:46;14.23;;;11.87;;
8626;SDS011;4351;51.422;6.794;2023-11-22T00:11:16;14.30;;;11.03;;
8626;SDS011;4351;51.422;6.794;2023-11-22T00:13:43;18.17;;;11.50;;
8626;SDS011;4351;51.422;6.794;2023-11-22T00:16:11;14.60;;;11.07;;
8626;SDS011;4351;51.422;6.794;2023-11-22T00:18:39;15.50;;;11.30;;
8626;SDS011;4351;51.422;6.794;2023-11-22T00:21:07;13.60;;;10.80;;
8626;SDS011;4351;51.422;6.794;2023-11-22T00:23:36;15.80;;;11.27;;
8626;SDS011;4351;51.422;6.794;2023-11-22T00:26:04;15.93;;;10.67;;
8626;SDS011;4351;51.422;6.794;2023-11-22T00:28:34;15.27;;;11.00;;
8626;SDS011;4351;51.422;6.794;2023-11-22T00:31:02;14.40;;;11.50;;
8626;SDS011;4351;51.422;6.794;2023-11-22T00:33:30;14.23;;;10.83;;
8626;SDS011;4351;51.422;6.794;2023-11-22T00:35:58;15.73;;;11.13;;
8626;SDS011;4351;51.422;6.794;2023-11-22T00:38:26;14.90;;;10.67;;
8626;SDS011;4351;51.422;6.794;2023-11-22T00:40:54;16.03;;;11.23;;
8626;SDS011;4351;51.422;6.794;2023-11-22T00:43:21;17.50;;;11.33;;
8626;SDS011;4351;51.422;6.794;2023-11-22T00:45:51;15.03;;;10.93;;
8626;SDS011;4351;51.422;6.794;2023-11-22T00:48:18;15.87;;;11.50;;
8626;SDS011;4351;51.422;6.794;2023-11-22T00:50:46;16.03;;;10.53;;
8626;SDS011;4351;51.422;6.794;2023-11-22T00:53:14;13.90;;;9.93;;
8626;SDS011;4351;51.422;6.794;2023-11-22T00:55:42;13.70;;;10.23;;
8626;SDS011;4351;51.422;6.794;2023-11-22T00:58:10;15.17;;;10.30;;
8626;SDS011;4351;51.422;6.794;2023-11-22T01:00:38;14.30;;;10.37;;
8626;SDS011;4351;51.422;6.794;2023-11-22T01:03:07;15.37;;;9.93;;
8626;SDS011;4351;51.422;6.794;2023-11-22T01:05:39;13.83;;;9.60;;
8626;SDS011;4351;51.422;6.794;2023-11-22T01:08:08;14.30;;;9.37;;
8626;SDS011;4351;51.422;6.794;2023-11-22T01:10:36;13.87;;;9.00;;
8626;SDS011;4351;51.422;6.794;2023-11-22T01:13:04;10.80;;;8.33;;
8626;SDS011;4351;51.422;6.794;2023-11-22T01:15:32;13.17;;;8.27;;
8626;SDS011;4351;51.422;6.794;2023-11-22T01:17:59;12.60;;;8.87;;
8626;SDS011;4351;51.422;6.794;2023-11-22T01:20:29;12.97;;;8.77;;
8626;SDS011;4351;51.422;6.794;2023-11-22T01:22:57;14.50;;;9.03;;
8626;SDS011;4351;51.422;6.794;2023-11-22T01:25:24;13.10;;;8.80;;
8626;SDS011;4351;51.422;6.794;2023-11-22T01:27:53;12.77;;;8.67;;
8626;SDS011;4351;51.422;6.794;2023-11-22T01:30:21;12.03;;;8.63;;
8626;SDS011;4351;51.422;6.794;2023-11-22T01:32:49;13.33;;;8.33;;
8626;SDS011;4351;51.422;6.794;2023-11-22T01:35:17;16.00;;;8.90;;
8626;SDS011;4351;51.422;6.794;2023-11-22T01:37:46;10.93;;;8.47;;
8626;SDS011;4351;51.422;6.794;2023-11-22T01:40:14;12.70;;;8.40;;
8626;SDS011;4351;51.422;6.794;2023-11-22T01:42:42;11.73;;;8.40;;
8626;SDS011;4351;51.422;6.794;2023-11-22T01:45:11;10.70;;;8.73;;
8626;SDS011;4351;51.422;6.794;2023-11-22T01:47:38;13.07;;;8.27;;
8626;SDS011;4351;51.422;6.794;2023-11-22T01:50:07;11.10;;;7.40;;
8626;SDS011;4351;51.422;6.794;2023-11-22T01:52:36;10.90;;;7.23;;
8626;SDS011;4351;51.422;6.794;2023-11-22T01:55:05;12.80;;;8.77;;
8626;SDS011;4351;51.422;6.794;2023-11-22T01:57:35;12.37;;;7.70;;
8626;SDS011;4351;51.422;6.794;2023-11-22T02:00:04;14.63;;;8.00;;
8626;SDS011;4351;51.422;6.794;2023-11-22T02:02:40;10.43;;;7.53;;
8626;SDS011;4351;51.422;6.794;2023-11-22T02:05:09;12.47;;;8.47;;
8626;SDS011;4351;51.422;6.794;2023-11-22T02:07:38;11.53;;;7.80;;
8626;SDS011;4351;51.422;6.794;2023-11-22T02:10:08;12.17;;;8.37;;
8626;SDS011;4351;51.422;6.794;2023-11-22T02:12:36;12.60;;;8.30;;
8626;SDS011;4351;51.422;6.794;2023-11-22T02:15:04;12.80;;;8.67;;
8626;SDS011;4351;51.422;6.794;2023-11-22T02:17:32;12.13;;;9.00;;
8626;SDS011;4351;51.422;6.794;2023-11-22T02:20:01;12.53;;;8.30;;
8626;SDS011;4351;51.422;6.794;2023-11-22T02:22:32;12.60;;;9.40;;
8626;SDS011;4351;51.422;6.794;2023-11-22T02:25:01;12.60;;;8.40;;
8626;SDS011;4351;51.422;6.794;2023-11-22T02:27:31;13.27;;;9.00;;
8626;SDS011;4351;51.422;6.794;2023-11-22T02:29:58;16.77;;;9.63;;
8626;SDS011;4351;51.422;6.794;2023-11-22T02:32:26;14.20;;;8.80;;
8626;SDS011;4351;51.422;6.794;2023-11-22T02:34:54;14.47;;;10.20;;
8626;SDS011;4351;51.422;6.794;2023-11-22T02:37:22;14.03;;;8.90;;
8626;SDS011;4351;51.422;6.794;2023-11-22T02:39:54;13.80;;;8.67;;
8626;SDS011;4351;51.422;6.794;2023-11-22T02:42:25;14.47;;;8.33;;
8626;SDS011;4351;51.422;6.794;2023-11-22T02:44:52;12.57;;;9.30;;
8626;SDS011;4351;51.422;6.794;2023-11-22T02:47:20;11.63;;;9.13;;
8626;SDS011;4351;51.422;6.794;2023-11-22T02:49:48;13.97;;;9.30;;
8626;SDS011;4351;51.422;6.794;2023-11-22T02:52:16;12.80;;;8.60;;
8626;SDS011;4351;51.422;6.794;2023-11-22T02:54:43;14.57;;;9.33;;
8626;SDS011;4351;51.422;6.794;2023-11-22T02:57:12;12.40;;;8.33;;
8626;SDS011;4351;51.422;6.794;2023-11-22T02:59:42;12.20;;;8.23;;
8626;SDS011;4351;51.422;6.794;2023-11-22T03:02:10;15.07;;;9.27;;
8626;SDS011;4351;51.422;6.794;2023-11-22T03:04:38;11.57;;;8.67;;
8626;SDS011;4351;51.422;6.794;2023-11-22T03:07:05;12.90;;;8.70;;
8626;SDS011;4351;51.422;6.794;2023-11-22T03:09:33;12.53;;;8.97;;
8626;SDS011;4351;51.422;6.794;2023-11-22T03:12:01;12.87;;;8.67;;
8626;SDS011;4351;51.422;6.794;2023-11-22T03:14:29;13.23;;;8.57;;
8626;SDS011;4351;51.422;6.794;2023-11-22T03:16:58;12.40;;;9.33;;
8626;SDS011;4351;51.422;6.794;2023-11-22T03:19:26;15.17;;;9.20;;
8626;SDS011;4351;51.422;6.794;2023-11-22T03:21:54;13.37;;;8.70;;
8626;SDS011;4351;51.422;6.794;2023-11-22T03:24:23;14.20;;;9.20;;
8626;SDS011;4351;51.422;6.794;2023-11-22T03:26:51;14.57;;;9.13;;
8626;SDS011;4351;51.422;6.794;2023-11-22T03:29:19;13.87;;;9.13;;
8626;SDS011;4351;51.422;6.794;2023-11-22T03:31:46;13.53;;;9.20;;
8626;SDS011;4351;51.422;6.794;2023-11-22T03:34:15;13.60;;;9.23;;
8626;SDS011;4351;51.422;6.794;2023-11-22T03:36:43;14.23;;;9.87;;
8626;SDS011;4351;51.422;6.794;2023-11-22T03:39:11;15.50;;;9.60;;
8626;SDS011;4351;51.422;6.794;2023-11-22T03:41:40;13.30;;;10.13;;
8626;SDS011;4351;51.422;6.794;2023-11-22T03:44:09;15.57;;;10.43;;
8626;SDS011;4351;51.422;6.794;2023-11-22T03:46:37;14.30;;;10.00;;
8626;SDS011;4351;51.422;6.794;2023-11-22T03:49:06;14.03;;;10.10;;
8626;SDS011;4351;51.422;6.794;2023-11-22T03:51:36;13.40;;;8.80;;
8626;SDS011;4351;51.422;6.794;2023-11-22T03:54:04;13.20;;;8.73;;
8626;SDS011;4351;51.422;6.794;2023-11-22T03:56:32;14.47;;;10.43;;
8626;SDS011;4351;51.422;6.794;2023-11-22T03:59:00;14.60;;;10.03;;
8626;SDS011;4351;51.422;6.794;2023-11-22T04:01:28;14.77;;;10.83;;
8626;SDS011;4351;51.422;6.794;2023-11-22T04:03:55;16.17;;;10.27;;
8626;SDS011;4351;51.422;6.794;2023-11-22T04:06:23;15.13;;;10.47;;
8626;SDS011;4351;51.422;6.794;2023-11-22T04:08:52;14.90;;;9.87;;
8626;SDS011;4351;51.422;6.794;2023-11-22T04:11:20;12.87;;;9.00;;
8626;SDS011;4351;51.422;6.794;2023-11-22T04:13:48;15.80;;;9.87;;
8626;SDS011;4351;51.422;6.794;2023-11-22T04:16:16;13.37;;;9.07;;
8626;SDS011;4351;51.422;6.794;2023-11-22T04:18:44;14.97;;;10.10;;
8626;SDS011;4351;51.422;6.794;2023-11-22T04:21:12;15.63;;;10.17;;
8626;SDS011;4351;51.422;6.794;2023-11-22T04:23:40;12.97;;;9.63;;
8626;SDS011;4351;51.422;6.794;2023-11-22T04:26:10;13.13;;;9.63;;
8626;SDS011;4351;51.422;6.794;2023-11-22T04:28:37;16.47;;;10.00;;
8626;SDS011;4351;51.422;6.794;2023-11-22T04:31:04;14.90;;;10.23;;
8626;SDS011;4351;51.422;6.794;2023-11-22T04:33:35;15.30;;;10.00;;
8626;SDS011;4351;51.422;6.794;2023-11-22T04:36:04;14.03;;;10.23;;
8626;SDS011;4351;51.422;6.794;2023-11-22T04:38:33;15.57;;;9.93;;
8626;SDS011;4351;51.422;6.794;2023-11-22T04:41:01;15.50;;;10.70;;
8626;SDS011;4351;51.422;6.794;2023-11-22T04:43:30;13.80;;;9.93;;
8626;SDS011;4351;51.422;6.794;2023-11-22T04:45:58;13.33;;;9.80;;
8626;SDS011;4351;51.422;6.794;2023-11-22T04:48:25;15.67;;;9.97;;
8626;SDS011;4351;51.422;6.794;2023-11-22T04:50:53;13.77;;;9.20;;
8626;SDS011;4351;51.422;6.794;2023-11-22T04:53:21;14.10;;;9.97;;
8626;SDS011;4351;51.422;6.794;2023-11-22T04:55:48;15.20;;;9.87;;
8626;SDS011;4351;51.422;6.794;2023-11-22T04:58:16;13.57;;;8.93;;
8626;SDS011;4351;51.422;6.794;2023-11-22T05:00:45;14.23;;;9.33;;
8626;SDS011;4351;51.422;6.794;2023-11-22T05:03:16;13.13;;;9.37;;
8626;SDS011;4351;51.422;6.794;2023-11-22T05:05:44;16.50;;;9.47;;
8626;SDS011;4351;51.422;6.794;2023-11-22T05:08:12;13.97;;;9.33;;
8626;SDS011;4351;51.422;6.794;2023-11-22T05:10:40;13.73;;;10.03;;
8626;SDS011;4351;51.422;6.794;2023-11-22T05:13:08;14.53;;;9.43;;
8626;SDS011;4351;51.422;6.794;2023-11-22T05:15:36;16.00;;;9.60;;
8626;SDS011;4351;51.422;6.794;2023-11-22T05:18:04;12.20;;;8.77;;
8626;SDS011;4351;51.422;6.794;2023-11-22T05:20:32;13.47;;;8.93;;
8626;SDS011;4351;51.422;6.794;2023-11-22T05:23:00;12.60;;;8.90;;
8626;SDS011;4351;51.422;6.794;2023-11-22T05:25:28;14.83;;;9.13;;
8626;SDS011;4351;51.422;6.794;2023-11-22T05:27:56;14.77;;;10.07;;
8626;SDS011;4351;51.422;6.794;2023-11-22T05:30:25;13.00;;;9.23;;
8626;SDS011;4351;51.422;6.794;2023-11-22T05:32:53;14.57;;;8.97;;
8626;SDS011;4351;51.422;6.794;2023-11-22T05:35:22;13.43;;;8.90;;
8626;SDS011;4351;51.422;6.794;2023-11-22T05:37:50;15.03;;;9.40;;
8626;SDS011;4351;51.422;6.794;2023-11-22T05:40:18;12.77;;;9.43;;
8626;SDS011;4351;51.422;6.794;2023-11-22T05:42:45;14.60;;;9.83;;
8626;SDS011;4351;51.422;6.794;2023-11-22T05:45:13;13.50;;;9.63;;
8626;SDS011;4351;51.422;6.794;2023-11-22T05:47:41;12.43;;;8.73;;
8626;SDS011;4351;51.422;6.794;2023-11-22T05:50:09;15.37;;;9.87;;
8626;SDS011;4351;51.422;6.794;2023-11-22T05:52:38;12.23;;;9.03;;
8626;SDS011;4351;51.422;6.794;2023-11-22T05:55:06;13.70;;;9.13;;
8626;SDS011;4351;51.422;6.794;2023-11-22T05:57:35;13.70;;;9.53;;
8626;SDS011;4351;51.422;6.794;2023-11-22T06:00:03;13.90;;;8.97;;
8626;SDS011;4351;51.422;6.794;2023-11-22T06:02:32;13.37;;;8.80;;
8626;SDS011;4351;51.422;6.794;2023-11-22T06:04:59;12.63;;;9.10;;
8626;SDS011;4351;51.422;6.794;2023-11-22T06:07:27;15.07;;;9.17;;
8626;SDS011;4351;51.422;6.794;2023-11-22T06:09:57;13.90;;;8.73;;
8626;SDS011;4351;51.422;6.794;2023-11-22T06:12:25;13.40;;;8.67;;
8626;SDS011;4351;51.422;6.794;2023-11-22T06:14:52;12.97;;;8.43;;
8626;SDS011;4351;51.422;6.794;2023-11-22T06:17:20;13.87;;;8.73;;
8626;SDS011;4351;51.422;6.794;2023-11-22T06:19:47;13.70;;;8.57;;
8626;SDS011;4351;51.422;6.794;2023-11-22T06:22:15;13.47;;;8.93;;
8626;SDS011;4351;51.422;6.794;2023-11-22T06:24:43;14.37;;;8.67;;
8626;SDS011;4351;51.422;6.794;2023-11-22T06:27:15;14.30;;;8.63;;
8626;SDS011;4351;51.422;6.794;2023-11-22T06:29:43;11.67;;;8.13;;
8626;SDS011;4351;51.422;6.794;2023-11-22T06:32:11;12.43;;;9.00;;
8626;SDS011;4351;51.422;6.794;2023-11-22T06:34:39;13.33;;;8.70;;
8626;SDS011;4351;51.422;6.794;2023-11-22T06:37:06;14.17;;;8.60;;
8626;SDS011;4351;51.422;6.794;2023-11-22T06:39:35;11.97;;;8.30;;
8626;SDS011;4351;51.422;6.794;2023-11-22T06:42:04;19.00;;;8.97;;
8626;SDS011;4351;51.422;6.794;2023-11-22T06:44:34;12.83;;;8.20;;
8626;SDS011;4351;51.422;6.794;2023-11-22T06:47:02;13.83;;;8.67;;
8626;SDS011;4351;51.422;6.794;2023-11-22T06:49:30;14.53;;;8.67;;
8626;SDS011;4351;51.422;6.794;2023-11-22T06:51:57;12.70;;;8.13;;
8626;SDS011;4351;51.422;6.794;2023-11-22T06:54:25;13.43;;;8.17;;
8626;SDS011;4351;51.422;6.794;2023-11-22T06:56:53;11.53;;;7.83;;
8626;SDS011;4351;51.422;6.794;2023-11-22T06:59:20;12.30;;;8.37;;
8626;SDS011;4351;51.422;6.794;2023-11-22T07:01:49;11.40;;;8.13;;
8626;SDS011;4351;51.422;6.794;2023-11-22T07:04:17;14.70;;;8.83;;
8626;SDS011;4351;51.422;6.794;2023-11-22T07:06:45;11.13;;;8.13;;
8626;SDS011;4351;51.422;6.794;2023-11-22T07:09:13;14.53;;;8.87;;
8626;SDS011;4351;51.422;6.794;2023-11-22T07:11:40;14.53;;;9.33;;
8626;SDS011;4351;51.422;6.794;2023-11-22T07:14:10;12.37;;;8.70;;
8626;SDS011;4351;51.422;6.794;2023-11-22T07:16:38;13.93;;;8.67;;
8626;SDS011;4351;51.422;6.794;2023-11-22T07:19:07;13.40;;;8.83;;
8626;SDS011;4351;51.422;6.794;2023-11-22T07:21:34;13.67;;;8.37;;
8626;SDS011;4351;51.422;6.794;2023-11-22T07:24:04;14.70;;;8.70;;
8626;SDS011;4351;51.422;6.794;2023-11-22T07:26:33;13.80;;;9.03;;
8626;SDS011;4351;51.422;6.794;2023-11-22T07:29:00;15.70;;;9.00;;
8626;SDS011;4351;51.422;6.794;2023-11-22T07:31:28;11.77;;;8.07;;
8626;SDS011;4351;51.422;6.794;2023-11-22T07:33:56;14.97;;;9.33;;
8626;SDS011;4351;51.422;6.794;2023-11-22T07:36:26;15.30;;;8.80;;
8626;SDS011;4351;51.422;6.794;2023-11-22T07:38:54;14.60;;;8.93;;
8626;SDS011;4351;51.422;6.794;2023-11-22T07:41:22;17.07;;;9.33;;
8626;SDS011;4351;51.422;6.794;2023-11-22T07:43:50;16.67;;;9.57;;
8626;SDS011;4351;51.422;6.794;2023-11-22T07:46:17;13.10;;;9.17;;
8626;SDS011;4351;51.422;6.794;2023-11-22T07:48:46;13.43;;;8.93;;
8626;SDS011;4351;51.422;6.794;2023-11-22T07:51:15;14.17;;;8.77;;
8626;SDS011;4351;51.422;6.794;2023-11-22T07:53:45;14.83;;;8.80;;
8626;SDS011;4351;51.422;6.794;2023-11-22T07:56:13;19.07;;;10.17;;
8626;SDS011;4351;51.422;6.794;2023-11-22T07:58:44;17.83;;;10.50;;
8626;SDS011;4351;51.422;6.794;2023-11-22T08:01:11;15.67;;;9.43;;
8626;SDS011;4351;51.422;6.794;2023-11-22T08:03:40;14.87;;;9.37;;
8626;SDS011;4351;51.422;6.794;2023-11-22T08:06:12;19.43;;;10.90;;
8626;SDS011;4351;51.422;6.794;2023-11-22T08:08:40;15.73;;;9.70;;
8626;SDS011;4351;51.422;6.794;2023-11-22T08:11:09;15.97;;;9.20;;
8626;SDS011;4351;51.422;6.794;2023-11-22T08:13:41;14.57;;;8.47;;
8626;SDS011;4351;51.422;6.794;2023-11-22T08:16:12;15.83;;;8.90;;
8626;SDS011;4351;51.422;6.794;2023-11-22T08:18:40;15.97;;;8.73;;
8626;SDS011;4351;51.422;6.794;2023-11-22T08:21:10;13.60;;;8.07;;
8626;SDS011;4351;51.422;6.794;2023-11-22T08:23:38;13.73;;;8.47;;
8626;SDS011;4351;51.422;6.794;2023-11-22T08:26:07;11.63;;;7.90;;
8626;SDS011;4351;51.422;6.794;2023-11-22T08:28:37;13.87;;;8.57;;
8626;SDS011;4351;51.422;6.794;2023-11-22T08:31:05;14.53;;;8.80;;
8626;SDS011;4351;51.422;6.794;2023-11-22T08:33:35;11.07;;;7.27;;
8626;SDS011;4351;51.422;6.794;2023-11-22T08:36:04;13.60;;;8.17;;
8626;SDS011;4351;51.422;6.794;2023-11-22T08:38:32;15.00;;;8.10;;
8626;SDS011;4351;51.422;6.794;2023-11-22T08:41:00;10.23;;;7.47;;
8626;SDS011;4351;51.422;6.794;2023-11-22T08:43:28;10.00;;;6.77;;
8626;SDS011;4351;51.422;6.794;2023-11-22T08:45:59;10.67;;;6.93;;
8626;SDS011;4351;51.422;6.794;2023-11-22T08:48:39;13.03;;;6.83;;
8626;SDS011;4351;51.422;6.794;2023-11-22T08:51:08;10.90;;;6.90;;
8626;SDS011;4351;51.422;6.794;2023-11-22T08:53:37;10.93;;;7.40;;
8626;SDS011;4351;51.422;6.794;2023-11-22T08:56:05;13.47;;;7.60;;
8626;SDS011;4351;51.422;6.794;2023-11-22T08:58:35;13.17;;;7.50;;
8626;SDS011;4351;51.422;6.794;2023-11-22T09:01:05;10.27;;;7.57;;
8626;SDS011;4351;51.422;6.794;2023-11-22T09:03:33;12.07;;;7.90;;
8626;SDS011;4351;51.422;6.794;2023-11-22T09:06:01;10.23;;;7.50;;
8626;SDS011;4351;51.422;6.794;2023-11-22T09:08:29;11.17;;;7.47;;
8626;SDS011;4351;51.422;6.794;2023-11-22T09:10:57;10.13;;;6.90;;
8626;SDS011;4351;51.422;6.794;2023-11-22T09:13:25;10.80;;;6.93;;
8626;SDS011;4351;51.422;6.794;2023-11-22T09:15:53;9.63;;;6.60;;
8626;SDS011;4351;51.422;6.794;2023-11-22T09:18:22;9.70;;;6.60;;
8626;SDS011;4351;51.422;6.794;2023-11-22T09:20:50;10.83;;;6.60;;
8626;SDS011;4351;51.422;6.794;2023-11-22T09:23:17;9.60;;;6.73;;
8626;SDS011;4351;51.422;6.794;2023-11-22T09:25:45;8.83;;;6.57;;
8626;SDS011;4351;51.422;6.794;2023-11-22T09:28:13;9.83;;;6.40;;
8626;SDS011;4351;51.422;6.794;2023-11-22T09:30:42;8.67;;;6.23;;
8626;SDS011;4351;51.422;6.794;2023-11-22T09:33:11;7.00;;;5.90;;
8626;SDS011;4351;51.422;6.794;2023-11-22T09:35:42;10.00;;;6.07;;
8626;SDS011;4351;51.422;6.794;2023-11-22T09:38:11;12.17;;;6.37;;
8626;SDS011;4351;51.422;6.794;2023-11-22T09:40:40;11.03;;;5.80;;
8626;SDS011;4351;51.422;6.794;2023-11-22T09:43:08;10.53;;;5.73;;
8626;SDS011;4351;51.422;6.794;2023-11-22T09:45:36;9.00;;;5.70;;
8626;SDS011;4351;51.422;6.794;2023-11-22T09:48:06;8.13;;;5.67;;
8626;SDS011;4351;51.422;6.794;2023-11-22T09:50:38;9.43;;;5.90;;
8626;SDS011;4351;51.422;6.794;2023-11-22T09:53:10;9.33;;;6.00;;
8626;SDS011;4351;51.422;6.794;2023-11-22T09:55:38;8.67;;;6.00;;
8626;SDS011;4351;51.422;6.794;2023-11-22T09:58:09;9.83;;;5.93;;
8626;SDS011;4351;51.422;6.794;2023-11-22T10:00:39;7.90;;;5.80;;
8626;SDS011;4351;51.422;6.794;2023-11-22T10:03:08;10.07;;;6.70;;
8626;SDS011;4351;51.422;6.794;2023-11-22T10:05:41;9.33;;;6.20;;
8626;SDS011;4351;51.422;6.794;2023-11-22T10:08:10;8.83;;;5.90;;
8626;SDS011;4351;51.422;6.794;2023-11-22T10:10:38;7.90;;;5.50;;
8626;SDS011;4351;51.422;6.794;2023-11-22T10:13:06;8.03;;;5.70;;
8626;SDS011;4351;51.422;6.794;2023-11-22T10:15:36;9.17;;;5.63;;
8626;SDS011;4351;51.422;6.794;2023-11-22T10:18:04;8.17;;;5.50;;
8626;SDS011;4351;51.422;6.794;2023-11-22T10:20:37;10.10;;;6.43;;
8626;SDS011;4351;51.422;6.794;2023-11-22T10:23:07;7.77;;;5.30;;
8626;SDS011;4351;51.422;6.794;2023-11-22T10:25:37;8.73;;;5.70;;
8626;SDS011;4351;51.422;6.794;2023-11-22T10:28:10;8.33;;;5.13;;
8626;SDS011;4351;51.422;6.794;2023-11-22T10:30:37;8.57;;;5.30;;
8626;SDS011;4351;51.422;6.794;2023-11-22T10:33:06;8.67;;;4.93;;
8626;SDS011;4351;51.422;6.794;2023-11-22T10:35:34;9.30;;;5.23;;
8626;SDS011;4351;51.422;6.794;2023-11-22T10:38:03;7.63;;;4.60;;
8626;SDS011;4351;51.422;6.794;2023-11-22T10:40:33;7.67;;;4.30;;
8626;SDS011;4351;51.422;6.794;2023-11-22T10:43:02;7.60;;;4.97;;
8626;SDS011;4351;51.422;6.794;2023-11-22T10:45:30;6.33;;;4.40;;
8626;SDS011;4351;51.422;6.794;2023-11-22T10:47:58;7.93;;;4.97;;
8626;SDS011;4351;51.422;6.794;2023-11-22T10:50:27;8.30;;;4.80;;
8626;SDS011;4351;51.422;6.794;2023-11-22T10:52:56;6.33;;;4.20;;
8626;SDS011;4351;51.422;6.794;2023-11-22T10:55:26;7.37;;;4.50;;
8626;SDS011;4351;51.422;6.794;2023-11-22T10:57:54;6.77;;;5.00;;
8626;SDS011;4351;51.422;6.794;2023-11-22T11:00:24;7.53;;;5.77;;
8626;SDS011;4351;51.422;6.794;2023-11-22T11:02:59;8.40;;;6.20;;
8626;SDS011;4351;51.422;6.794;2023-11-22T11:05:30;9.93;;;5.70;;
8626;SDS011;4351;51.422;6.794;2023-11-22T11:08:00;9.23;;;5.70;;
8626;SDS011;4351;51.422;6.794;2023-11-22T11:10:29;10.23;;;6.33;;
8626;SDS011;4351;51.422;6.794;2023-11-22T11:12:59;7.73;;;5.23;;
8626;SDS011;4351;51.422;6.794;2023-11-22T11:15:28;9.40;;;5.23;;
8626;SDS011;4351;51.422;6.794;2023-11-22T11:17:56;9.03;;;5.43;;
8626;SDS011;4351;51.422;6.794;2023-11-22T11:20:24;8.23;;;4.90;;
8626;SDS011;4351;51.422;6.794;2023-11-22T11:22:53;6.70;;;4.70;;
8626;SDS011;4351;51.422;6.794;2023-11-22T11:25:22;7.30;;;4.77;;
8626;SDS011;4351;51.422;6.794;2023-11-22T11:27:56;8.63;;;5.33;;
8626;SDS011;4351;51.422;6.794;2023-11-22T11:30:43;7.13;;;4.70;;
8626;SDS011;4351;51.422;6.794;2023-11-22T11:33:12;6.70;;;4.77;;
8626;SDS011;4351;51.422;6.794;2023-11-22T11:35:42;10.90;;;5.40;;
8626;SDS011;4351;51.422;6.794;2023-11-22T11:38:12;8.63;;;4.83;;
8626;SDS011;4351;51.422;6.794;2023-11-22T11:40:40;9.03;;;4.33;;
8626;SDS011;4351;51.422;6.794;2023-11-22T11:43:08;8.20;;;4.50;;
8626;SDS011;4351;51.422;6.794;2023-11-22T11:45:36;8.70;;;4.50;;
8626;SDS011;4351;51.422;6.794;2023-11-22T11:48:07;5.80;;;4.00;;
8626;SDS011;4351;51.422;6.794;2023-11-22T11:50:35;7.23;;;4.40;;
8626;SDS011;4351;51.422;6.794;2023-11-22T11:53:02;7.20;;;4.40;;
8626;SDS011;4351;51.422;6.794;2023-11-22T11:55:31;6.27;;;4.20;;
8626;SDS011;4351;51.422;6.794;2023-11-22T11:58:02;7.63;;;3.90;;
8626;SDS011;4351;51.422;6.794;2023-11-22T12:00:31;5.10;;;3.30;;
8626;SDS011;4351;51.422;6.794;2023-11-22T12:02:59;6.77;;;3.90;;
8626;SDS011;4351;51.422;6.794;2023-11-22T12:05:28;6.53;;;3.33;;
8626;SDS011;4351;51.422;6.794;2023-11-22T12:07:55;8.87;;;3.47;;
8626;SDS011;4351;51.422;6.794;2023-11-22T12:10:23;6.10;;;3.70;;
8626;SDS011;4351;51.422;6.794;2023-11-22T12:12:51;4.27;;;3.07;;
8626;SDS011;4351;51.422;6.794;2023-11-22T12:15:19;5.83;;;2.90;;
8626;SDS011;4351;51.422;6.794;2023-11-22T12:17:48;20.80;;;3.87;;
8626;SDS011;4351;51.422;6.794;2023-11-22T12:20:18;4.93;;;3.23;;
8626;SDS011;4351;51.422;6.794;2023-11-22T12:22:49;6.13;;;3.80;;
8626;SDS011;4351;51.422;6.794;2023-11-22T12:25:17;4.87;;;3.00;;
8626;SDS011;4351;51.422;6.794;2023-11-22T12:27:46;4.87;;;3.30;;
8626;SDS011;4351;51.422;6.794;2023-11-22T12:30:27;7.13;;;3.40;;
8626;SDS011;4351;51.422;6.794;2023-11-22T12:32:56;6.13;;;3.27;;
8626;SDS011;4351;51.422;6.794;2023-11-22T12:35:23;6.33;;;3.30;;
8626;SDS011;4351;51.422;6.794;2023-11-22T12:37:53;9.27;;;3.20;;
8626;SDS011;4351;51.422;6.794;2023-11-22T12:40:21;4.40;;;2.80;;
8626;SDS011;4351;51.422;6.794;2023-11-22T12:42:49;4.97;;;2.70;;
8626;SDS011;4351;51.422;6.794;2023-11-22T12:45:19;5.03;;;2.47;;
8626;SDS011;4351;51.422;6.794;2023-11-22T12:47:47;2.70;;;2.00;;
8626;SDS011;4351;51.422;6.794;2023-11-22T12:50:34;2.57;;;1.83;;
8626;SDS011;4351;51.422;6.794;2023-11-22T12:53:09;2.37;;;1.80;;
8626;SDS011;4351;51.422;6.794;2023-11-22T12:55:38;5.17;;;2.17;;
8626;SDS011;4351;51.422;6.794;2023-11-22T12:58:09;2.33;;;1.43;;
8626;SDS011;4351;51.422;6.794;2023-11-22T13:00:37;2.80;;;1.20;;
8626;SDS011;4351;51.422;6.794;2023-11-22T13:03:05;2.90;;;1.70;;
8626;SDS011;4351;51.422;6.794;2023-11-22T13:05:34;2.80;;;1.70;;
8626;SDS011;4351;51.422;6.794;2023-11-22T13:08:02;2.50;;;1.40;;
8626;SDS011;4351;51.422;6.794;2023-11-22T13:10:31;2.17;;;1.20;;
8626;SDS011;4351;51.422;6.794;2023-11-22T13:12:59;3.30;;;1.80;;
8626;SDS011;4351;51.422;6.794;2023-11-22T13:15:27;2.80;;;1.07;;
8626;SDS011;4351;51.422;6.794;2023-11-22T13:17:56;2.10;;;1.50;;
8626;SDS011;4351;51.422;6.794;2023-11-22T13:20:25;2.57;;;1.50;;
8626;SDS011;4351;51.422;6.794;2023-11-22T13:22:53;3.47;;;2.17;;
8626;SDS011;4351;51.422;6.794;2023-11-22T13:25:21;4.37;;;1.90;;
8626;SDS011;4351;51.422;6.794;2023-11-22T13:27:52;3.70;;;1.97;;
8626;SDS011;4351;51.422;6.794;2023-11-22T13:30:22;2.90;;;1.60;;
8626;SDS011;4351;51.422;6.794;2023-11-22T13:32:51;17.97;;;2.07;;
8626;SDS011;4351;51.422;6.794;2023-11-22T13:35:20;3.33;;;1.80;;
8626;SDS011;4351;51.422;6.794;2023-11-22T13:37:48;2.77;;;1.60;;
8626;SDS011;4351;51.422;6.794;2023-11-22T13:40:17;6.03;;;1.50;;
8626;SDS011;4351;51.422;6.794;2023-11-22T13:42:48;4.27;;;1.60;;
8626;SDS011;4351;51.422;6.794;2023-11-22T13:45:18;5.87;;;1.90;;
8626;SDS011;4351;51.422;6.794;2023-11-22T13:47:47;2.97;;;2.00;;
8626;SDS011;4351;51.422;6.794;2023-11-22T13:50:15;7.53;;;4.60;;
8626;SDS011;4351;51.422;6.794;2023-11-22T13:52:45;3.13;;;2.23;;
8626;SDS011;4351;51.422;6.794;2023-11-22T13:55:14;4.80;;;2.33;;
8626;SDS011;4351;51.422;6.794;2023-11-22T13:57:44;4.00;;;2.33;;
8626;SDS011;4351;51.422;6.794;2023-11-22T14:00:12;4.70;;;2.43;;
8626;SDS011;4351;51.422;6.794;2023-11-22T14:02:46;5.37;;;2.57;;
8626;SDS011;4351;51.422;6.794;2023-11-22T14:05:14;4.77;;;2.67;;
8626;SDS011;4351;51.422;6.794;2023-11-22T14:07:43;4.10;;;2.60;;
8626;SDS011;4351;51.422;6.794;2023-11-22T14:10:11;3.73;;;2.53;;
8626;SDS011;4351;51.422;6.794;2023-11-22T14:12:42;6.90;;;2.77;;
8626;SDS011;4351;51.422;6.794;2023-11-22T14:15:10;5.13;;;2.33;;
8626;SDS011;4351;51.422;6.794;2023-11-22T14:17:38;6.43;;;2.10;;
8626;SDS011;4351;51.422;6.794;2023-11-22T14:20:09;9.47;;;2.20;;
8626;SDS011;4351;51.422;6.794;2023-11-22T14:22:38;4.30;;;1.70;;
8626;SDS011;4351;51.422;6.794;2023-11-22T14:25:06;3.73;;;1.70;;
8626;SDS011;4351;51.422;6.794;2023-11-22T14:27:38;2.97;;;1.73;;
8626;SDS011;4351;51.422;6.794;2023-11-22T14:30:06;4.53;;;2.00;;
8626;SDS011;4351;51.422;6.794;2023-11-22T14:32:34;4.67;;;2.47;;
8626;SDS011;4351;51.422;6.794;2023-11-22T14:35:02;6.67;;;5.17;;
8626;SDS011;4351;51.422;6.794;2023-11-22T14:37:32;7.53;;;6.13;;
8626;SDS011;4351;51.422;6.794;2023-11-22T14:40:00;4.37;;;2.87;;
8626;SDS011;4351;51.422;6.794;2023-11-22T14:42:30;4.90;;;3.20;;
8626;SDS011;4351;51.422;6.794;2023-11-22T14:44:58;5.00;;;3.23;;
8626;SDS011;4351;51.422;6.794;2023-11-22T14:47:25;5.17;;;3.30;;
8626;SDS011;4351;51.422;6.794;2023-11-22T14:49:57;6.57;;;2.87;;
8626;SDS011;4351;51.422;6.794;2023-11-22T14:52:24;7.33;;;3.17;;
8626;SDS011;4351;51.422;6.794;2023-11-22T14:54:53;10.70;;;3.90;;
8626;SDS011;4351;51.422;6.794;2023-11-22T14:57:22;6.27;;;3.60;;
8626;SDS011;4351;51.422;6.794;2023-11-22T14:59:49;6.23;;;3.20;;
8626;SDS011;4351;51.422;6.794;2023-11-22T15:02:17;6.93;;;3.27;;
8626;SDS011;4351;51.422;6.794;2023-11-22T15:04:46;7.03;;;3.53;;
8626;SDS011;4351;51.422;6.794;2023-11-22T15:07:17;7.40;;;3.93;;
8626;SDS011;4351;51.422;6.794;2023-11-22T15:09:45;6.40;;;3.80;;
8626;SDS011;4351;51.422;6.794;2023-11-22T15:12:15;6.60;;;3.87;;
8626;SDS011;4351;51.422;6.794;2023-11-22T15:14:43;9.20;;;3.83;;